Terminal Aerodrome Forecast
Issued by NWS

Home | Current Version | Previous Version | Graphics & Text | Print | Product List | Glossary On
Versions: 1 2 3 4 5 6 7 8 9 10 11 12 13 14 15 16 17 18
000
FTUS42 KMHX 211140
TAFPGV
TAF
KPGV 211140Z 2112/2212 09006KT P6SM BKN025 OVC045
     FM211400 15010KT P6SM VCSH SCT025 BKN045
     FM211800 23012KT 5SM SHRA VCTS BKN025CB
     FM212200 35006KT P6SM OVC015
      AMD LTD TO CLD VIS AND WIND=

USA.gov is the U.S. government's official web portal to all federal, state and local government web resources and services.